METAR v bližini

 

LJMB - Maribor Edvarda Rusjana, Slovenia
Oddaljenost od postaje: SV 30,9km
Podatki zajeti: 23/05/2019 07:00
Jasno
Jasno
 Veter iz smeri spremenljiv
Veter: spremenljiv 4 km/h
Temperatura: 12°C
Rosišče: 10°C
Vlažnost: 88%
Tlak: 1016 hPa
Stanje: Jasno
Vidljivost: večja od 10 km
2019/05/23 05:00 LJMB 230500Z VRB02KT CAVOK 12/10 Q1016
LJLJ - Ljubljana Brnik, Slovenia
Oddaljenost od postaje: S 103km
Podatki zajeti: 23/05/2019 07:00
Megla v okolici, Pretežno oblačno
Megla v okolici, Pretežno oblačno
 Veter iz smeri spremenljiv
Veter: spremenljiv 4 km/h
Temperatura: 8°C
Rosišče: 8°C
Vlažnost: 100%
Tlak: 1016 hPa
Stanje: Megla v okolici
Oblačnost: Pretežno oblačno
Vidljivost: 10 km
Podrobnosti o oblakih: Rahlo oblačno 30 m
Pretežno oblačno 3353 m
2019/05/23 05:00 LJLJ 230500Z VRB02KT 9999 VCFG FEW001 BKN110 08/08 Q1016 NOSIG
 
LJPZ - Portorož, Slovenia
Oddaljenost od postaje: SSZ 224km
Podatki zajeti: 23/05/2019 07:00
Delno oblačno
Delno oblačno
 Veter iz smeri VJV
Veter: VJV 7 km/h
Temperatura: 14°C
Rosišče: 13°C
Vlažnost: 94%
Tlak: 1015 hPa
Oblačnost: Delno oblačno
Vidljivost: 10 km
Podrobnosti o oblakih: Rahlo oblačno 1006 m
Delno oblačno 3048 m
2019/05/23 05:00 LJPZ 230500Z 12004KT 080V150 9999 FEW033 SCT100 14/13 Q1015
LJCE - Cerklje, Slovenia
Oddaljenost od postaje: VSV 83,9km
Podatki zajeti: 23/05/2019 07:00
Meglice, Pretežno oblačno
Meglice, Pretežno oblačno
 Veter iz smeri spremenljiv
Veter: spremenljiv 2 km/h
Temperatura: 10°C
Rosišče: 10°C
Vlažnost: 100%
Tlak: 1016 hPa
Stanje: Meglice
Oblačnost: Pretežno oblačno
Vidljivost: 5 km
Podrobnosti o oblakih: Rahlo oblačno 61 m
Pretežno oblačno 6706 m
2019/05/23 05:00 LJCE 230500Z VRB01KT 5000 BR FEW002 BKN220 10/10 Q1016 RMK WHT
 
LOWG - Graz, Austria
Oddaljenost od postaje: SSZ 99,6km
Podatki zajeti: 23/05/2019 07:20
Rahlo dežuje, Showers, Pretežno oblačno
Rahlo dežuje, Showers, Pretežno oblačno
 Veter iz smeri spremenljiv
Veter: spremenljiv 2 km/h
Temperatura: 12°C
Rosišče: 9°C
Vlažnost: 82%
Tlak: 1016 hPa
Stanje: Rahlo dežuje, Showers
Oblačnost: Pretežno oblačno
Vidljivost: 10 km
Podrobnosti o oblakih: Rahlo oblačno 1219 m
Delno oblačno 2134 m
Pretežno oblačno 3962 m
2019/05/23 05:20 LOWG 230520Z VRB01KT 9999 -SHRA FEW040 SCT070 BKN130 12/09 Q1016 NOSIG
LOWK - Klagenfurt, Austria
Oddaljenost od postaje: SZ 121km
Podatki zajeti: 23/05/2019 07:20
Delno oblačno
Delno oblačno
 Veter iz smeri Z
Veter: Z 6 km/h
Temperatura: 10°C
Rosišče: 7°C
Vlažnost: 82%
Tlak: 1017 hPa
Oblačnost: Delno oblačno
Vidljivost: 10 km
Podrobnosti o oblakih: Rahlo oblačno 1524 m
Delno oblačno 4267 m
2019/05/23 05:20 LOWK 230520Z 27003KT 9999 FEW050 SCT140 10/07 Q1017 NOSIG
 
LDRI - Rijeka, Croatia
Oddaljenost od postaje: SZ 243km
Podatki zajeti: 23/05/2019 07:30
Jasno
Jasno
 Veter iz smeri spremenljiv
Veter: spremenljiv 4 km/h
Temperatura: 16°C
Rosišče: 13°C
Vlažnost: 83%
Tlak: 1016 hPa
Stanje: Jasno
Vidljivost: večja od 10 km
2019/05/23 05:30 LDRI 230530Z VRB02KT CAVOK 16/13 Q1016
LIPQ - Ronchi, Italy
Oddaljenost od postaje: VJV 224km
Podatki zajeti: 23/05/2019 07:20
Jasno
Jasno
 Veter iz smeri spremenljiv
Veter: spremenljiv 4 km/h
Temperatura: 14°C
Rosišče: 13°C
Vlažnost: 94%
Tlak: 1016 hPa
Stanje: Jasno
Vidljivost: večja od 10 km
2019/05/23 05:20 LIPQ 230520Z VRB02KT CAVOK 14/13 Q1016
 
LDZA - Zagreb, Croatia
Oddaljenost od postaje: JJV 143km
Podatki zajeti: 23/05/2019 07:30
Jasno
Jasno
 Veter iz smeri spremenljiv
Veter: spremenljiv 4 km/h
Temperatura: 13°C
Rosišče: 12°C
Vlažnost: 94%
Tlak: 1015 hPa
Stanje: Jasno
Vidljivost: večja od 10 km
2019/05/23 05:30 LDZA 230530Z VRB02KT CAVOK 13/12 Q1015 NOSIG
LIVT - Trieste, Italy
Oddaljenost od postaje: ZSZ 250km
Podatki zajeti: 22/05/2019 19:55
Ni posodobljen
Jasno
Jasno
 Veter iz smeri calm
Veter: Mirno
Temperatura: 17°C
Rosišče: 16°C
Vlažnost: 94%
Tlak: 1014 hPa
Stanje: Jasno
Vidljivost: večja od 10 km
2019/05/22 17:55 LIVT 221755Z 00000KT CAVOK 17/16 Q1014
 
LIPA - Aviano, Italy
Oddaljenost od postaje: S 310km
Podatki zajeti: 23/05/2019 06:55
Meglice, Pretežno oblačno
Meglice, Pretežno oblačno
 Veter iz smeri SZ
Veter: SZ 2 km/h
Temperatura: 14°C
Rosišče: 12°C
Vlažnost: 88%
Tlak: 1015 hPa
Stanje: Meglice
Oblačnost: Pretežno oblačno
Vidljivost: 5 km
Podrobnosti o oblakih: Rahlo oblačno 152 m
Pretežno oblačno 2743 m
2019/05/23 04:55 LIPA 230455Z 32001KT 5000 BR FEW005 BKN090 14/12 Q1015 RMK BKN VIS MIN 5000 WIND THR05 00000KT WIND THR23 33001KT A3000 WHT
LDPL - Pula, Croatia
Oddaljenost od postaje: SSV 304km
Podatki zajeti: 23/05/2019 07:30
Jasno
Jasno
 Veter iz smeri VSV
Veter: VSV 6 km/h
Temperatura: 15°C
Rosišče: 12°C
Vlažnost: 82%
Tlak: 1015 hPa
Stanje: Jasno
Vidljivost: večja od 10 km
2019/05/23 05:30 LDPL 230530Z 06003KT CAVOK 15/12 Q1015 NOSIG